Time;durP1;ratioP1;P1;durP2;ratioP2;P2;SDS_P1;SDS_P2;PMS_P1;PMS_P2;Temp;Humidity;BMP_temperature;BMP_pressure;BME280_temperature;BME280_humidity;BME280_pressure;Samples;Min_cycle;Max_cycle;Signal;HPM_P1;HPM_P2
2021/08/28 00:01:03;;;;;;;16.00;5.07;;;14.80;93.70;;;;;;5035165;28;20070;-75
2021/08/28 00:03:29;;;;;;;9.38;4.13;;;14.80;93.70;;;;;;5034961;28;20454;-75
2021/08/28 00:05:55;;;;;;;13.23;4.95;;;14.90;93.70;;;;;;5036705;28;20387;-75
2021/08/28 00:08:20;;;;;;;17.23;5.65;;;14.90;93.70;;;;;;5036474;28;20112;-77
2021/08/28 00:10:47;;;;;;;13.30;5.30;;;14.90;93.70;;;;;;5041631;28;20033;-76
2021/08/28 00:13:13;;;;;;;14.15;4.93;;;15.00;93.70;;;;;;5040172;28;20040;-76
2021/08/28 00:15:39;;;;;;;15.82;5.20;;;14.90;93.70;;;;;;5036717;28;20071;-77
2021/08/28 00:18:05;;;;;;;12.48;4.43;;;15.00;93.70;;;;;;5036244;28;20546;-76
2021/08/28 00:20:31;;;;;;;17.48;5.72;;;14.90;93.70;;;;;;5035717;28;20096;-75
2021/08/28 00:22:57;;;;;;;13.80;5.22;;;15.00;93.70;;;;;;5034509;28;20359;-77
2021/08/28 00:25:23;;;;;;;13.95;5.10;;;15.00;93.80;;;;;;5035776;28;20451;-76
2021/08/28 00:27:48;;;;;;;14.15;5.38;;;15.00;93.80;;;;;;5035110;28;20041;-76
2021/08/28 00:30:14;;;;;;;12.35;4.72;;;15.00;93.80;;;;;;5035418;28;20045;-76
2021/08/28 00:32:40;;;;;;;16.48;5.43;;;15.00;93.80;;;;;;5034078;28;20505;-77
2021/08/28 00:35:06;;;;;;;9.77;4.63;;;15.10;93.80;;;;;;5035981;28;20057;-77
2021/08/28 00:37:32;;;;;;;14.02;5.57;;;15.10;93.80;;;;;;5033793;28;20025;-76
2021/08/28 00:39:58;;;;;;;11.18;4.75;;;15.10;93.80;;;;;;5035490;28;20033;-76
2021/08/28 00:42:24;;;;;;;15.20;5.38;;;15.10;93.80;;;;;;5035689;28;20036;-76
2021/08/28 00:44:50;;;;;;;13.20;4.88;;;15.20;93.80;;;;;;5034973;28;20029;-75
2021/08/28 00:47:17;;;;;;;9.40;4.85;;;15.20;93.80;;;;;;5033995;28;20079;-76
2021/08/28 00:49:48;;;;;;;14.95;4.50;;;15.20;93.70;;;;;;5034864;28;20029;-76
2021/08/28 00:52:16;;;;;;;12.80;4.35;;;15.30;93.70;;;;;;5035402;28;20032;-76
2021/08/28 00:54:42;;;;;;;14.52;5.13;;;15.30;93.70;;;;;;5035075;28;20036;-76
2021/08/28 00:57:08;;;;;;;14.75;4.72;;;15.30;93.60;;;;;;5034001;28;20112;-77
2021/08/28 00:59:33;;;;;;;12.75;3.65;;;15.30;93.60;;;;;;5034807;28;20021;-76
2021/08/28 01:02:00;;;;;;;15.30;5.40;;;15.30;93.10;;;;;;5033853;28;20549;-76
2021/08/28 01:04:30;;;;;;;11.68;4.38;;;15.30;93.30;;;;;;5035807;28;20030;-75
2021/08/28 01:07:08;;;;;;;;;;;15.30;93.40;;;;;;5034317;28;20053;-76
2021/08/28 01:09:36;;;;;;;17.60;5.38;;;15.30;93.40;;;;;;5035872;28;19972;-75
2021/08/28 01:12:05;;;;;;;18.95;5.00;;;15.30;93.50;;;;;;5034228;28;20022;-75
2021/08/28 01:14:32;;;;;;;13.25;5.97;;;15.30;93.50;;;;;;5033137;28;20029;-76
2021/08/28 01:17:01;;;;;;;13.30;5.40;;;15.30;93.60;;;;;;5033604;28;20255;-76
2021/08/28 01:19:38;;;;;;;15.38;4.93;;;15.30;93.60;;;;;;5034834;28;20053;-76
2021/08/28 01:22:13;;;;;;;18.48;6.50;;;15.30;93.50;;;;;;5034814;28;20036;-76
2021/08/28 01:24:41;;;;;;;17.27;4.35;;;15.30;93.60;;;;;;5033349;28;20025;-76
2021/08/28 01:27:30;;;;;;;20.70;5.88;;;15.30;93.50;;;;;;5033267;28;20120;-76
2021/08/28 01:29:57;;;;;;;15.75;5.72;;;15.30;93.50;;;;;;5022423;28;20034;-75
2021/08/28 01:32:24;;;;;;;18.45;5.65;;;15.30;93.60;;;;;;5035145;28;20090;-76
2021/08/28 01:34:50;;;;;;;13.55;5.38;;;15.40;93.60;;;;;;5033296;28;20013;-76
2021/08/28 01:37:18;;;;;;;18.40;6.57;;;15.40;93.60;;;;;;5034545;28;20078;-75
2021/08/28 01:39:45;;;;;;;18.25;6.72;;;15.40;93.60;;;;;;5033203;28;20048;-76
2021/08/28 01:42:12;;;;;;;10.65;5.82;;;15.40;93.60;;;;;;5034891;28;20045;-75
2021/08/28 01:44:38;;;;;;;13.95;5.57;;;15.40;93.70;;;;;;5034271;28;20164;-75
2021/08/28 01:47:08;;;;;;;15.23;5.25;;;15.40;93.60;;;;;;5034666;28;20033;-75
2021/08/28 01:49:34;;;;;;;25.57;6.40;;;15.40;93.70;;;;;;5038332;28;20034;-76
2021/08/28 01:52:00;;;;;;;12.98;5.03;;;15.50;93.70;;;;;;5049693;28;20049;-76
2021/08/28 01:54:26;;;;;;;15.65;5.75;;;15.40;93.70;;;;;;5035339;28;20370;-75
2021/08/28 01:56:51;;;;;;;14.48;6.30;;;15.40;93.60;;;;;;5032984;28;20335;-75
2021/08/28 01:59:17;;;;;;;15.27;5.70;;;15.40;93.70;;;;;;5037484;28;20030;-75
2021/08/28 02:01:42;;;;;;;17.80;5.95;;;15.40;93.70;;;;;;5038775;28;20028;-75
2021/08/28 02:04:08;;;;;;;21.60;7.00;;;15.40;93.70;;;;;;5043261;28;20031;-74
2021/08/28 02:06:37;;;;;;;12.75;6.18;;;15.40;93.70;;;;;;5033592;28;20172;-75
2021/08/28 02:09:18;;;;;;;14.40;6.18;;;15.40;93.70;;;;;;5032598;28;20552;-76
2021/08/28 02:11:48;;;;;;;13.90;6.30;;;15.40;94.00;;;;;;5033263;28;20152;-75
2021/08/28 02:14:18;;;;;;;13.27;5.60;;;15.40;93.80;;;;;;5032358;28;20029;-75
2021/08/28 02:16:45;;;;;;;17.52;6.00;;;15.40;93.90;;;;;;5032974;28;20035;-76
2021/08/28 02:19:19;;;;;;;13.38;6.50;;;15.40;93.90;;;;;;5032232;28;20118;-76
2021/08/28 02:21:52;;;;;;;12.27;7.03;;;15.30;94.00;;;;;;5032151;28;20018;-77
2021/08/28 02:24:23;;;;;;;13.38;5.20;;;15.40;94.10;;;;;;5032240;28;20047;-76
2021/08/28 02:27:17;;;;;;;19.95;6.22;;;15.40;94.10;;;;;;5031704;28;20525;-76
2021/08/28 02:30:06;;;;;;;16.30;5.88;;;15.40;94.20;;;;;;5033698;28;20017;-76
2021/08/28 02:32:32;;;;;;;15.15;5.50;;;15.40;94.10;;;;;;5035360;28;20036;-75
2021/08/28 02:35:00;;;;;;;18.45;8.00;;;15.50;94.10;;;;;;5034410;28;20021;-75
2021/08/28 02:37:27;;;;;;;16.70;8.13;;;15.50;94.00;;;;;;5033328;28;20021;-75
2021/08/28 02:39:54;;;;;;;14.38;7.18;;;15.50;94.10;;;;;;5033052;28;20107;-75
2021/08/28 02:42:20;;;;;;;17.38;5.40;;;15.50;94.00;;;;;;5031875;28;20080;-75
2021/08/28 02:44:48;;;;;;;13.68;6.40;;;15.50;94.10;;;;;;5031707;28;20417;-76
2021/08/28 02:47:15;;;;;;;13.85;5.15;;;15.50;94.20;;;;;;5031769;28;20045;-75
2021/08/28 02:49:42;;;;;;;20.58;6.80;;;15.40;94.10;;;;;;5031509;28;20033;-75
2021/08/28 02:52:11;;;;;;;17.15;5.95;;;15.50;94.20;;;;;;5032690;28;20536;-75
2021/08/28 02:54:39;;;;;;;14.68;6.32;;;15.50;94.20;;;;;;5031357;28;20061;-76
2021/08/28 02:57:06;;;;;;;15.27;6.88;;;15.50;94.10;;;;;;5032619;28;20381;-76
2021/08/28 02:59:33;;;;;;;22.38;7.38;;;15.50;94.20;;;;;;5032658;28;20406;-76
2021/08/28 03:01:59;;;;;;;10.38;4.10;;;15.50;94.20;;;;;;5031368;28;20024;-76
2021/08/28 03:04:25;;;;;;;12.18;3.70;;;15.60;94.00;;;;;;5032876;28;20018;-76
2021/08/28 03:06:51;;;;;;;12.75;5.20;;;15.60;94.00;;;;;;5031310;28;20505;-75
2021/08/28 03:09:17;;;;;;;13.88;6.03;;;15.60;93.90;;;;;;5036502;28;20025;-75
2021/08/28 03:11:44;;;;;;;12.60;5.10;;;15.70;94.10;;;;;;5031895;28;20116;-74
2021/08/28 03:14:10;;;;;;;10.55;5.53;;;15.60;93.80;;;;;;5032559;28;20025;-75
2021/08/28 03:16:40;;;;;;;10.82;4.53;;;15.70;93.80;;;;;;5032703;28;20028;-74
2021/08/28 03:19:08;;;;;;;;;;;15.70;93.80;;;;;;5031447;28;20028;-75
2021/08/28 03:21:36;;;;;;;13.80;5.85;;;15.70;93.80;;;;;;5032616;28;20151;-75
2021/08/28 03:24:03;;;;;;;11.00;4.20;;;15.70;94.00;;;;;;5032188;28;20021;-75
2021/08/28 03:26:30;;;;;;;11.98;4.72;;;15.70;94.00;;;;;;5032307;28;20416;-75
2021/08/28 03:28:57;;;;;;;11.60;3.60;;;15.70;94.10;;;;;;5031319;28;20061;-74
2021/08/28 03:31:25;;;;;;;12.93;4.30;;;15.70;94.00;;;;;;5032418;28;20034;-74
2021/08/28 03:33:53;;;;;;;10.00;4.55;;;15.70;94.00;;;;;;5032259;28;20104;-74
2021/08/28 03:36:19;;;;;;;8.25;3.50;;;15.60;94.00;;;;;;5032605;28;20031;-74
2021/08/28 03:38:45;;;;;;;10.45;4.57;;;15.70;93.90;;;;;;5032095;28;20022;-74
2021/08/28 03:41:11;;;;;;;13.38;4.18;;;15.60;93.50;;;;;;5032559;28;20363;-74
2021/08/28 03:43:37;;;;;;;12.90;5.13;;;15.60;93.70;;;;;;5031351;28;20029;-74
2021/08/28 03:46:06;;;;;;;7.80;3.38;;;15.60;93.60;;;;;;5031410;28;20030;-75
2021/08/28 03:48:32;;;;;;;5.90;3.13;;;15.70;93.70;;;;;;5031873;28;20017;-75
2021/08/28 03:50:58;;;;;;;12.45;5.25;;;15.70;93.50;;;;;;5037097;28;20278;-73
2021/08/28 03:53:24;;;;;;;8.65;4.03;;;15.70;93.60;;;;;;5036726;28;20021;-73
2021/08/28 03:55:50;;;;;;;10.35;4.43;;;15.70;93.80;;;;;;5042377;28;20470;-74
2021/08/28 03:58:15;;;;;;;12.00;4.72;;;15.70;93.80;;;;;;5037239;28;20025;-74
2021/08/28 04:00:41;;;;;;;13.75;5.50;;;15.70;94.00;;;;;;5030959;28;20036;-74
2021/08/28 04:03:07;;;;;;;12.30;4.22;;;15.70;94.00;;;;;;5032069;28;20018;-74
2021/08/28 04:05:32;;;;;;;8.77;4.68;;;15.80;94.10;;;;;;5031798;28;20379;-75
2021/08/28 04:07:58;;;;;;;9.00;4.38;;;15.70;94.00;;;;;;5031314;28;20034;-74
2021/08/28 04:10:25;;;;;;;11.20;4.85;;;15.70;94.10;;;;;;5031911;28;20478;-73
2021/08/28 04:12:50;;;;;;;10.27;4.45;;;15.70;94.10;;;;;;5031781;28;20528;-74
2021/08/28 04:15:16;;;;;;;13.45;5.22;;;15.70;94.00;;;;;;5032255;28;20022;-74
2021/08/28 04:17:41;;;;;;;14.20;5.53;;;15.80;94.40;;;;;;5031377;28;20498;-74
2021/08/28 04:20:07;;;;;;;14.45;5.53;;;15.80;94.00;;;;;;5032229;28;20029;-74
2021/08/28 04:22:33;;;;;;;9.82;4.32;;;15.80;94.10;;;;;;5030645;28;20049;-74
2021/08/28 04:24:59;;;;;;;11.75;5.53;;;15.80;93.60;;;;;;5031659;28;20080;-74
2021/08/28 04:27:24;;;;;;;11.75;4.43;;;15.80;93.70;;;;;;5030271;28;20048;-74
2021/08/28 04:29:50;;;;;;;12.82;5.03;;;15.80;93.70;;;;;;5031684;28;20036;-74
2021/08/28 04:32:15;;;;;;;7.32;3.58;;;15.80;93.70;;;;;;5030607;28;20053;-74
2021/08/28 04:34:41;;;;;;;14.50;5.38;;;15.80;93.70;;;;;;5031597;28;20093;-74
2021/08/28 04:37:07;;;;;;;12.48;5.28;;;15.80;93.70;;;;;;5031899;28;20446;-74
2021/08/28 04:39:32;;;;;;;10.85;3.85;;;15.80;92.80;;;;;;5030399;28;20021;-74
2021/08/28 04:41:58;;;;;;;8.43;4.63;;;15.80;93.10;;;;;;5034980;28;20021;-75
2021/08/28 04:44:24;;;;;;;11.23;4.70;;;15.80;93.30;;;;;;5035345;28;20090;-74
2021/08/28 04:46:49;;;;;;;13.05;6.60;;;15.80;93.60;;;;;;5033670;28;20037;-75
2021/08/28 04:49:15;;;;;;;11.52;6.30;;;15.80;93.80;;;;;;5035229;28;20026;-74
2021/08/28 04:51:40;;;;;;;6.55;2.33;;;15.80;93.70;;;;;;5035093;28;20040;-74
2021/08/28 04:54:06;;;;;;;9.52;3.92;;;15.70;93.10;;;;;;5035172;28;20096;-73
2021/08/28 04:56:32;;;;;;;11.70;5.28;;;15.70;93.20;;;;;;5034884;28;20037;-74
2021/08/28 04:58:57;;;;;;;11.68;5.97;;;15.70;93.40;;;;;;5034960;28;20029;-74
2021/08/28 05:01:23;;;;;;;12.10;5.82;;;15.70;93.30;;;;;;5035433;28;20084;-74
2021/08/28 05:03:48;;;;;;;7.63;4.05;;;15.70;93.70;;;;;;5035314;28;20474;-74
2021/08/28 05:06:14;;;;;;;11.82;6.55;;;15.70;93.70;;;;;;5033815;28;20029;-73
2021/08/28 05:08:39;;;;;;;11.40;5.18;;;15.70;93.80;;;;;;5041295;28;20034;-73
2021/08/28 05:11:05;;;;;;;10.55;6.20;;;15.70;93.90;;;;;;5042778;28;20044;-73
2021/08/28 05:13:31;;;;;;;10.95;5.55;;;15.70;93.90;;;;;;5039010;28;20031;-73
2021/08/28 05:15:56;;;;;;;15.15;5.90;;;15.70;94.10;;;;;;5045281;28;20021;-74
2021/08/28 05:18:22;;;;;;;15.82;6.13;;;15.70;93.70;;;;;;5034867;28;20103;-74
2021/08/28 05:20:47;;;;;;;12.25;5.15;;;15.80;93.80;;;;;;5034629;28;20021;-74
2021/08/28 05:23:13;;;;;;;13.70;6.03;;;15.80;93.80;;;;;;5033826;28;20025;-73
2021/08/28 05:25:39;;;;;;;9.98;4.15;;;15.80;94.00;;;;;;5034258;28;20112;-73
2021/08/28 05:28:06;;;;;;;14.90;5.95;;;15.80;93.40;;;;;;5034124;28;20374;-75
2021/08/28 05:30:32;;;;;;;12.90;5.75;;;15.90;93.60;;;;;;5034451;28;20025;-73
2021/08/28 05:32:57;;;;;;;16.10;5.30;;;15.90;93.80;;;;;;5034523;28;20421;-74
2021/08/28 05:35:23;;;;;;;10.68;4.78;;;15.90;94.00;;;;;;5033308;28;20047;-73
2021/08/28 05:37:48;;;;;;;11.93;4.55;;;15.90;93.60;;;;;;5033247;28;20064;-73
2021/08/28 05:40:18;;;;;;;12.15;5.22;;;15.90;93.70;;;;;;5036388;28;20035;-74
2021/08/28 05:42:44;;;;;;;;;;;16.00;93.40;;;;;;5039726;28;20482;-74
2021/08/28 05:45:10;;;;;;;9.35;5.55;;;15.90;91.70;;;;;;5038005;28;19947;-75
2021/08/28 05:47:36;;;;;;;9.05;4.80;;;16.00;93.20;;;;;;5034156;28;20505;-74
2021/08/28 05:50:03;;;;;;;10.73;5.10;;;16.00;93.50;;;;;;5032605;28;20033;-75
2021/08/28 05:52:29;;;;;;;14.15;5.93;;;16.00;93.60;;;;;;5032250;28;20021;-73
2021/08/28 05:54:54;;;;;;;15.98;5.10;;;16.00;93.80;;;;;;5033920;28;20501;-76
2021/08/28 05:57:20;;;;;;;14.93;5.82;;;16.00;93.80;;;;;;5032962;28;20030;-74
2021/08/28 05:59:45;;;;;;;11.63;5.88;;;16.00;93.80;;;;;;5037867;28;20059;-74
2021/08/28 06:02:11;;;;;;;15.25;5.72;;;16.10;93.90;;;;;;5042406;28;20021;-74
2021/08/28 06:04:37;;;;;;;8.80;4.57;;;16.10;93.80;;;;;;5034012;28;20413;-74
2021/08/28 06:07:03;;;;;;;10.10;5.63;;;16.20;93.20;;;;;;5032258;28;20083;-74
2021/08/28 06:09:29;;;;;;;11.82;5.10;;;16.30;93.50;;;;;;5032525;28;20029;-75
2021/08/28 06:11:55;;;;;;;10.73;4.93;;;16.40;93.50;;;;;;5032202;28;20021;-74
2021/08/28 06:14:20;;;;;;;14.20;5.22;;;16.40;93.30;;;;;;5033689;28;20068;-74
2021/08/28 06:16:46;;;;;;;8.40;3.17;;;16.50;93.50;;;;;;5032439;28;20029;-73
2021/08/28 06:19:12;;;;;;;12.82;5.63;;;16.50;91.00;;;;;;5033097;28;20104;-73
2021/08/28 06:21:37;;;;;;;9.15;3.95;;;16.60;92.40;;;;;;5033576;28;20025;-74
2021/08/28 06:24:03;;;;;;;12.80;4.45;;;16.70;91.90;;;;;;5033121;28;20432;-73
2021/08/28 06:26:32;;;;;;;9.77;4.00;;;16.80;92.00;;;;;;5033526;28;20038;-73
2021/08/28 06:28:57;;;;;;;14.05;5.30;;;16.80;91.40;;;;;;5033600;28;20454;-73
2021/08/28 06:31:23;;;;;;;12.60;4.90;;;16.70;92.20;;;;;;5033360;28;20026;-73
2021/08/28 06:33:49;;;;;;;5.68;2.65;;;16.70;90.70;;;;;;5033288;28;20462;-75
2021/08/28 06:36:17;;;;;;;8.23;4.03;;;16.70;90.00;;;;;;5033148;28;20470;-76
2021/08/28 06:38:43;;;;;;;10.48;3.10;;;16.70;90.90;;;;;;5033339;28;20462;-75
2021/08/28 06:41:09;;;;;;;7.18;3.03;;;16.60;91.50;;;;;;5033043;28;20037;-75
2021/08/28 06:43:34;;;;;;;7.63;3.92;;;16.60;91.30;;;;;;5031643;28;20466;-75
2021/08/28 06:46:00;;;;;;;8.95;4.03;;;16.70;92.20;;;;;;5031544;28;20013;-75
2021/08/28 06:48:25;;;;;;;8.60;4.60;;;16.80;91.80;;;;;;5033139;28;20446;-74
2021/08/28 06:50:51;;;;;;;8.30;3.90;;;16.90;91.70;;;;;;5032908;28;20029;-74
2021/08/28 06:53:17;;;;;;;12.05;4.88;;;17.00;90.70;;;;;;5037346;28;20131;-74
2021/08/28 06:55:43;;;;;;;11.57;4.20;;;17.10;91.40;;;;;;5045498;28;20028;-74
2021/08/28 06:58:09;;;;;;;8.70;4.30;;;17.10;91.70;;;;;;5043361;28;20072;-73
2021/08/28 07:00:34;;;;;;;9.77;5.13;;;17.10;90.50;;;;;;5041173;28;20044;-75
2021/08/28 07:03:00;;;;;;;11.02;5.20;;;17.10;91.20;;;;;;5040899;28;20029;-73
2021/08/28 07:05:25;;;;;;;9.68;3.97;;;17.10;90.90;;;;;;5045526;28;20108;-73
2021/08/28 07:07:51;;;;;;;12.45;4.82;;;17.10;91.60;;;;;;5038949;28;20063;-74
2021/08/28 07:10:17;;;;;;;9.70;4.45;;;17.20;92.10;;;;;;5041420;28;20120;-74
2021/08/28 07:12:43;;;;;;;8.95;4.85;;;17.40;91.20;;;;;;5039040;28;20116;-74
2021/08/28 07:15:10;;;;;;;9.63;3.72;;;17.60;89.80;;;;;;5031701;28;20022;-75
2021/08/28 07:17:35;;;;;;;7.85;3.67;;;17.60;88.50;;;;;;5034628;28;20108;-75
2021/08/28 07:20:03;;;;;;;10.10;5.45;;;17.60;88.50;;;;;;5032521;28;20056;-75
2021/08/28 07:22:29;;;;;;;8.57;4.30;;;17.60;90.30;;;;;;5032252;28;20104;-76
2021/08/28 07:24:55;;;;;;;8.93;5.07;;;17.60;90.60;;;;;;5030648;28;20172;-75
2021/08/28 07:27:23;;;;;;;12.00;4.70;;;17.70;90.60;;;;;;5032321;28;20041;-75
2021/08/28 07:29:50;;;;;;;7.25;3.47;;;17.70;91.00;;;;;;5035807;28;20030;-75
2021/08/28 07:32:16;;;;;;;7.97;3.75;;;17.70;90.40;;;;;;5053332;28;20032;-73
2021/08/28 07:34:42;;;;;;;11.00;4.85;;;17.80;90.10;;;;;;5055457;28;20033;-73
2021/08/28 07:37:07;;;;;;;8.07;4.05;;;17.80;91.10;;;;;;5052202;28;20458;-73
2021/08/28 07:39:34;;;;;;;10.02;4.78;;;17.80;90.20;;;;;;5050941;28;20029;-74
2021/08/28 07:41:59;;;;;;;10.07;5.10;;;17.80;90.70;;;;;;5051625;28;20029;-72
2021/08/28 07:44:25;;;;;;;9.63;4.40;;;17.80;90.80;;;;;;5050641;28;20048;-73
2021/08/28 07:46:51;;;;;;;13.00;5.85;;;17.80;90.00;;;;;;5052174;28;20051;-73
2021/08/28 07:49:16;;;;;;;11.40;4.95;;;17.80;90.70;;;;;;5052040;28;20033;-73
2021/08/28 07:51:42;;;;;;;12.82;5.65;;;17.70;90.20;;;;;;5050748;28;20021;-72
2021/08/28 07:54:08;;;;;;;12.23;5.55;;;17.80;90.90;;;;;;5053484;28;20462;-72
2021/08/28 07:56:33;;;;;;;11.23;4.43;;;17.90;91.10;;;;;;5040420;28;20089;-72
2021/08/28 07:59:00;;;;;;;18.40;5.97;;;18.00;89.70;;;;;;5032150;28;20390;-71
2021/08/28 08:01:25;;;;;;;13.95;4.35;;;18.10;90.30;;;;;;5030568;28;20061;-72
2021/08/28 08:03:51;;;;;;;14.80;5.40;;;18.10;89.00;;;;;;5033413;28;20033;-72
2021/08/28 08:06:16;;;;;;;7.32;3.00;;;18.10;88.80;;;;;;5033235;28;20037;-72
2021/08/28 08:08:42;;;;;;;9.02;3.05;;;18.10;87.10;;;;;;5031370;28;20276;-71
2021/08/28 08:11:08;;;;;;;12.20;5.00;;;18.20;86.40;;;;;;5031491;28;20036;-72
2021/08/28 08:13:34;;;;;;;10.80;5.68;;;18.20;88.10;;;;;;5031511;28;20029;-71
2021/08/28 08:15:59;;;;;;;10.82;4.70;;;18.20;89.90;;;;;;5033347;28;20029;-72
2021/08/28 08:18:27;;;;;;;13.10;5.10;;;18.20;90.10;;;;;;5034268;28;20033;-72
2021/08/28 08:20:53;;;;;;;12.77;5.03;;;18.30;90.40;;;;;;5035017;28;20021;-72
2021/08/28 08:23:18;;;;;;;9.00;4.20;;;18.30;90.00;;;;;;5033560;28;20025;-72
2021/08/28 08:25:47;;;;;;;17.15;5.65;;;18.30;88.70;;;;;;5035250;28;20473;-71
2021/08/28 08:28:16;;;;;;;11.55;5.18;;;18.30;88.60;;;;;;5035410;28;20489;-72
2021/08/28 08:30:42;;;;;;;9.55;4.65;;;18.40;86.30;;;;;;5033898;28;20497;-72
2021/08/28 08:33:07;;;;;;;9.90;5.28;;;18.50;88.10;;;;;;5035591;28;20021;-72
2021/08/28 08:35:33;;;;;;;9.43;4.88;;;18.60;89.00;;;;;;5035628;28;20442;-73
2021/08/28 08:38:00;;;;;;;9.02;3.20;;;18.60;85.20;;;;;;5035380;28;20031;-72
2021/08/28 08:40:30;;;;;;;8.35;3.53;;;18.70;84.90;;;;;;5051260;28;20091;-73
2021/08/28 08:42:59;;;;;;;8.75;3.17;;;18.70;84.50;;;;;;5055088;28;20021;-72
2021/08/28 08:45:25;;;;;;;11.63;4.53;;;18.70;84.20;;;;;;5073545;28;20433;-72
2021/08/28 08:47:52;;;;;;;7.97;4.05;;;18.80;84.10;;;;;;5055037;28;20029;-72
2021/08/28 08:50:19;;;;;;;8.93;4.13;;;19.00;84.40;;;;;;5054774;28;20029;-72
2021/08/28 08:52:49;;;;;;;8.88;4.78;;;19.20;83.20;;;;;;5054968;28;20095;-73
2021/08/28 08:55:15;;;;;;;11.43;5.63;;;19.60;82.20;;;;;;5053291;28;20025;-73
2021/08/28 08:57:41;;;;;;;8.27;3.83;;;19.80;81.40;;;;;;5054945;28;20259;-72
2021/08/28 09:00:08;;;;;;;9.20;4.78;;;20.10;79.50;;;;;;5054745;28;20021;-74
2021/08/28 09:02:34;;;;;;;7.95;4.00;;;20.30;79.80;;;;;;5053772;28;20044;-72
2021/08/28 09:05:00;;;;;;;10.48;5.15;;;20.40;78.50;;;;;;5054953;28;20347;-74
2021/08/28 09:07:26;;;;;;;6.57;3.67;;;20.40;78.30;;;;;;5054785;28;20071;-73
2021/08/28 09:09:51;;;;;;;9.90;4.47;;;20.40;77.60;;;;;;5048762;28;20037;-73
2021/08/28 09:12:17;;;;;;;11.73;4.72;;;20.40;77.60;;;;;;5054249;28;20025;-73
2021/08/28 09:14:43;;;;;;;7.20;3.75;;;20.50;77.90;;;;;;5054861;28;20036;-73
2021/08/28 09:17:17;;;;;;;9.98;4.72;;;20.80;77.70;;;;;;5054532;28;20494;-73
2021/08/28 09:19:44;;;;;;;12.32;5.10;;;21.10;76.20;;;;;;5053739;28;20423;-73
2021/08/28 09:22:28;;;;;;;8.57;4.20;;;21.20;76.10;;;;;;5058858;28;20442;-73
2021/08/28 09:24:59;;;;;;;8.85;4.32;;;21.20;74.90;;;;;;5062457;28;20021;-72
2021/08/28 09:27:36;;;;;;;7.63;3.35;;;21.10;76.50;;;;;;5056541;28;20128;-74
2021/08/28 09:30:16;;;;;;;7.50;3.63;;;21.00;76.50;;;;;;5051492;28;20029;-74
2021/08/28 09:32:51;;;;;;;9.95;4.53;;;21.00;76.70;;;;;;5040260;28;20017;-73
2021/08/28 09:35:18;;;;;;;10.48;4.32;;;21.10;75.50;;;;;;5032551;28;20021;-75
2021/08/28 09:37:51;;;;;;;9.00;4.38;;;21.00;74.20;;;;;;5033978;28;20025;-73
2021/08/28 09:40:17;;;;;;;8.77;3.67;;;20.80;75.50;;;;;;5032510;28;20056;-73
2021/08/28 09:42:53;;;;;;;10.05;4.72;;;20.80;76.80;;;;;;5033254;28;20882;-74
2021/08/28 09:45:23;;;;;;;10.68;4.00;;;21.10;75.30;;;;;;5052957;28;20114;-74
2021/08/28 09:47:51;;;;;;;13.00;5.13;;;21.20;75.30;;;;;;5043541;28;20044;-75
2021/08/28 09:50:24;;;;;;;13.52;4.30;;;21.20;73.60;;;;;;5045250;28;20416;-74
2021/08/28 09:52:52;;;;;;;8.40;3.45;;;21.20;74.30;;;;;;5044936;28;20016;-74
2021/08/28 09:55:20;;;;;;;8.45;4.07;;;21.30;76.00;;;;;;5046550;28;20026;-73
2021/08/28 09:57:50;;;;;;;14.10;4.25;;;21.30;72.90;;;;;;5033818;28;20032;-74
2021/08/28 10:00:16;;;;;;;7.15;3.28;;;21.40;73.50;;;;;;5034007;28;20052;-73
2021/08/28 10:03:03;;;;;;;9.00;4.25;;;21.60;75.10;;;;;;5033346;28;20064;-74
2021/08/28 10:05:34;;;;;;;8.60;3.03;;;21.80;71.90;;;;;;5033407;28;20047;-74
2021/08/28 10:08:02;;;;;;;7.53;3.80;;;22.10;73.10;;;;;;5036711;28;20101;-74
2021/08/28 10:10:30;;;;;;;8.93;4.40;;;22.40;72.50;;;;;;5037852;28;20030;-75
2021/08/28 10:12:57;;;;;;;8.32;3.72;;;22.40;71.10;;;;;;5035367;28;20018;-75
2021/08/28 10:15:23;;;;;;;10.70;3.20;;;22.20;73.20;;;;;;5038467;28;20024;-75
2021/08/28 10:17:52;;;;;;;7.70;4.13;;;22.10;72.40;;;;;;5040832;28;20021;-74
2021/08/28 10:20:19;;;;;;;6.72;3.40;;;22.10;72.80;;;;;;5043250;28;20037;-75
2021/08/28 10:22:47;;;;;;;12.25;3.45;;;22.10;72.70;;;;;;5043088;28;20070;-74
2021/08/28 10:25:13;;;;;;;6.43;3.25;;;22.10;74.60;;;;;;5038474;28;20405;-73
2021/08/28 10:27:40;;;;;;;11.63;3.60;;;22.10;68.70;;;;;;5038596;28;20103;-73
2021/08/28 10:30:08;;;;;;;9.90;3.25;;;22.20;74.10;;;;;;5044766;28;20090;-74
2021/08/28 10:32:37;;;;;;;10.35;3.88;;;22.20;71.30;;;;;;5051605;28;20382;-74
2021/08/28 10:35:04;;;;;;;9.10;3.05;;;22.20;73.90;;;;;;5034873;28;20039;-74
2021/08/28 10:37:30;;;;;;;10.20;3.30;;;22.10;73.00;;;;;;5038262;28;20108;-73
2021/08/28 10:39:57;;;;;;;7.85;3.53;;;22.00;69.60;;;;;;5036889;28;20045;-73
2021/08/28 10:42:25;;;;;;;9.75;3.83;;;21.90;69.70;;;;;;5032238;28;20537;-74
2021/08/28 10:44:52;;;;;;;7.05;3.20;;;21.90;71.50;;;;;;5032482;28;20060;-74
2021/08/28 10:47:23;;;;;;;7.68;3.20;;;21.80;70.40;;;;;;5040311;28;20112;-73
2021/08/28 10:49:51;;;;;;;6.68;2.92;;;21.70;70.60;;;;;;5043039;28;20052;-75
2021/08/28 10:52:23;;;;;;;11.48;2.80;;;21.70;72.10;;;;;;5052370;28;20013;-74
2021/08/28 10:54:56;;;;;;;7.22;3.55;;;21.70;74.40;;;;;;5049578;28;20021;-75
2021/08/28 10:57:26;;;;;;;10.27;3.53;;;21.50;74.50;;;;;;5052180;28;20043;-75
2021/08/28 11:00:15;;;;;;;8.30;3.75;;;21.50;76.10;;;;;;5051297;28;20067;-75
2021/08/28 11:03:01;;;;;;;9.25;3.08;;;21.50;75.50;;;;;;5052855;28;20378;-75
2021/08/28 11:05:28;;;;;;;7.65;3.22;;;21.60;72.00;;;;;;5048193;28;20035;-73
2021/08/28 11:07:58;;;;;;;12.13;3.67;;;21.80;73.40;;;;;;5050790;28;20056;-74
2021/08/28 11:10:24;;;;;;;;;;;21.90;74.80;;;;;;5056114;28;20476;-73
2021/08/28 11:13:01;;;;;;;7.82;3.20;;;22.20;74.60;;;;;;5057047;28;19931;-72
2021/08/28 11:15:29;;;;;;;5.45;2.70;;;22.50;71.70;;;;;;5056813;28;20139;-73
2021/08/28 11:17:57;;;;;;;6.28;2.65;;;22.90;70.10;;;;;;5055746;28;20036;-74
2021/08/28 11:20:29;;;;;;;9.02;3.25;;;23.20;70.50;;;;;;5053643;28;20457;-74
2021/08/28 11:22:55;;;;;;;6.55;2.78;;;23.40;66.10;;;;;;5055253;28;20025;-74
2021/08/28 11:25:29;;;;;;;6.45;2.67;;;23.40;66.10;;;;;;5055465;28;20489;-75
2021/08/28 11:27:56;;;;;;;8.85;2.90;;;23.30;69.20;;;;;;5052828;28;20036;-73
2021/08/28 11:30:44;;;;;;;6.40;2.75;;;23.20;65.40;;;;;;5052090;28;20025;-73
2021/08/28 11:33:10;;;;;;;6.53;3.28;;;22.90;72.10;;;;;;5051763;28;20028;-74
2021/08/28 11:35:40;;;;;;;6.50;3.08;;;22.80;70.10;;;;;;5052318;28;20075;-73
2021/08/28 11:38:08;;;;;;;9.32;3.28;;;22.70;70.80;;;;;;5051106;28;20267;-74
2021/08/28 11:40:37;;;;;;;8.63;2.90;;;22.70;71.10;;;;;;5052135;28;20434;-73
2021/08/28 11:43:05;;;;;;;5.13;2.47;;;22.80;69.10;;;;;;5052297;28;20028;-74
2021/08/28 11:45:35;;;;;;;8.48;3.53;;;23.30;71.60;;;;;;5052234;28;20025;-74
2021/08/28 11:48:06;;;;;;;5.55;2.70;;;23.50;68.40;;;;;;5052181;28;20080;-74
2021/08/28 11:50:32;;;;;;;6.90;2.60;;;23.80;70.10;;;;;;5051486;28;20043;-74
2021/08/28 11:52:59;;;;;;;7.95;3.08;;;24.00;70.20;;;;;;5050555;28;20029;-74
2021/08/28 11:55:24;;;;;;;6.05;2.67;;;24.10;65.30;;;;;;5050268;28;20509;-74
2021/08/28 11:58:01;;;;;;;7.40;3.13;;;24.20;66.50;;;;;;5050492;28;20067;-74
2021/08/28 12:00:30;;;;;;;6.70;2.80;;;24.00;66.70;;;;;;5051331;28;20470;-74
2021/08/28 12:02:58;;;;;;;6.47;2.45;;;23.70;66.70;;;;;;5050808;28;20537;-74
2021/08/28 12:05:24;;;;;;;6.22;2.67;;;23.80;65.20;;;;;;5051728;28;20025;-74
2021/08/28 12:07:53;;;;;;;5.88;2.95;;;23.90;65.80;;;;;;5052129;28;20369;-74
2021/08/28 12:10:19;;;;;;;6.43;2.65;;;23.80;64.80;;;;;;5050702;28;20025;-74
2021/08/28 12:13:01;;;;;;;8.43;3.20;;;23.60;65.60;;;;;;5055603;28;20067;-73
2021/08/28 12:15:28;;;;;;;6.38;2.50;;;23.40;65.60;;;;;;5060980;28;20025;-75
2021/08/28 12:17:55;;;;;;;6.43;2.60;;;23.20;72.20;;;;;;5052386;28;20025;-75
2021/08/28 12:20:29;;;;;;;6.28;2.97;;;23.20;71.60;;;;;;5050308;28;20025;-74
2021/08/28 12:22:58;;;;;;;4.80;2.50;;;23.20;69.30;;;;;;5050405;28;20021;-74
2021/08/28 12:25:25;;;;;;;6.72;2.33;;;23.10;69.60;;;;;;5050170;28;20021;-74
2021/08/28 12:27:52;;;;;;;6.68;2.60;;;22.80;72.90;;;;;;5051413;28;20474;-74
2021/08/28 12:30:19;;;;;;;8.23;2.58;;;22.50;71.10;;;;;;5050083;28;20036;-75
2021/08/28 12:32:45;;;;;;;5.72;2.40;;;22.30;71.60;;;;;;5051738;28;20025;-74
2021/08/28 12:35:11;;;;;;;7.53;2.92;;;22.10;68.80;;;;;;5051426;28;20028;-74
2021/08/28 12:37:37;;;;;;;8.07;3.17;;;21.90;70.20;;;;;;5049916;28;20029;-74
2021/08/28 12:40:13;;;;;;;6.65;2.47;;;21.70;67.70;;;;;;5051692;28;20033;-73
2021/08/28 12:42:41;;;;;;;11.77;3.08;;;21.80;66.30;;;;;;5051535;28;20071;-74
2021/08/28 12:45:09;;;;;;;5.57;2.30;;;22.00;66.60;;;;;;5051293;28;20111;-74